Time;durP1;ratioP1;P1;durP2;ratioP2;P2;SDS_P1;SDS_P2;PMS_P1;PMS_P2;Temp;Humidity;BMP_temperature;BMP_pressure;BME280_temperature;BME280_humidity;BME280_pressure;Samples;Min_cycle;Max_cycle;Signal;HPM_P1;HPM_P2
2023/06/18 00:00:39;;;;;;;9.02;5.00;;;19.30;99.90;;;;;;4965789;28;20054;-34
2023/06/18 00:03:05;;;;;;;9.07;6.20;;;19.20;99.90;;;;;;4968390;28;20058;-34
2023/06/18 00:05:30;;;;;;;8.13;5.53;;;19.20;99.90;;;;;;4965398;28;20050;-34
2023/06/18 00:07:56;;;;;;;12.32;6.35;;;19.10;99.90;;;;;;4962188;28;20409;-34
2023/06/18 00:10:22;;;;;;;12.10;5.85;;;19.10;99.90;;;;;;4963077;28;20145;-34
2023/06/18 00:12:47;;;;;;;10.88;6.38;;;19.10;99.90;;;;;;4964678;28;20046;-34
2023/06/18 00:15:13;;;;;;;10.00;6.07;;;19.10;99.90;;;;;;4966671;28;20061;-34
2023/06/18 00:17:38;;;;;;;10.55;7.00;;;19.10;99.90;;;;;;4969249;28;20055;-34
2023/06/18 00:20:05;;;;;;;9.15;5.82;;;19.00;99.90;;;;;;4968133;28;20725;-34
2023/06/18 00:22:31;;;;;;;12.27;5.30;;;19.00;99.90;;;;;;4947585;28;20083;-34
2023/06/18 00:24:57;;;;;;;8.82;5.88;;;19.00;99.90;;;;;;4965435;28;20059;-34
2023/06/18 00:27:23;;;;;;;7.80;5.38;;;19.00;99.90;;;;;;4971098;28;20058;-34
2023/06/18 00:29:48;;;;;;;8.02;5.78;;;18.90;99.90;;;;;;4948323;28;20173;-34
2023/06/18 00:32:14;;;;;;;11.45;6.72;;;18.80;99.90;;;;;;4950541;28;20415;-35
2023/06/18 00:34:41;;;;;;;8.25;6.15;;;18.80;99.90;;;;;;4969086;28;20055;-34
2023/06/18 00:37:09;;;;;;;9.85;6.60;;;18.80;99.90;;;;;;4962866;28;20129;-34
2023/06/18 00:39:36;;;;;;;12.13;5.85;;;18.70;99.90;;;;;;4966406;28;20059;-34
2023/06/18 00:42:02;;;;;;;10.50;5.47;;;18.70;99.90;;;;;;4964852;28;20085;-34
2023/06/18 00:44:28;;;;;;;10.65;7.07;;;18.70;99.90;;;;;;4961841;28;20141;-34
2023/06/18 00:46:56;;;;;;;10.25;6.38;;;18.60;99.90;;;;;;4958651;28;20132;-34
2023/06/18 00:49:22;;;;;;;10.93;6.85;;;18.60;99.90;;;;;;4966659;28;20492;-34
2023/06/18 00:51:48;;;;;;;10.20;7.00;;;18.60;99.90;;;;;;4968173;28;20054;-34
2023/06/18 00:54:15;;;;;;;9.90;6.22;;;18.60;99.90;;;;;;4969422;28;20050;-34
2023/06/18 00:56:53;;;;;;;13.80;8.00;;;18.60;99.90;;;;;;4969679;28;20058;-34
2023/06/18 00:59:23;;;;;;;10.93;7.07;;;18.50;99.90;;;;;;4963277;28;20449;-34
2023/06/18 01:01:53;;;;;;;11.27;6.85;;;18.50;99.90;;;;;;4969687;28;20049;-34
2023/06/18 01:04:21;;;;;;;12.80;7.78;;;18.40;99.90;;;;;;4967331;28;20047;-36
2023/06/18 01:06:54;;;;;;;13.98;7.80;;;18.40;99.90;;;;;;4965186;28;20481;-36
2023/06/18 01:09:24;;;;;;;10.07;7.43;;;18.30;99.90;;;;;;4967518;28;20050;-35
2023/06/18 01:11:53;;;;;;;8.80;6.25;;;18.30;99.90;;;;;;4960884;28;20083;-35
2023/06/18 01:14:25;;;;;;;11.02;7.18;;;18.30;99.90;;;;;;4965687;28;20067;-35
2023/06/18 01:16:53;;;;;;;11.48;7.45;;;18.30;99.90;;;;;;4964945;28;20526;-35
2023/06/18 01:19:47;;;;;;;12.13;7.82;;;18.30;99.90;;;;;;4965024;28;20145;-34
2023/06/18 01:22:53;;;;;;;10.57;7.50;;;18.30;99.90;;;;;;4965255;28;20512;-35
2023/06/18 01:25:19;;;;;;;11.85;8.00;;;18.30;99.90;;;;;;4955783;28;20416;-35
2023/06/18 01:27:46;;;;;;;12.20;8.45;;;18.20;99.90;;;;;;4964183;28;20134;-35
2023/06/18 01:30:13;;;;;;;10.55;6.35;;;18.30;99.90;;;;;;4972035;28;20055;-35
2023/06/18 01:32:40;;;;;;;11.40;7.85;;;18.20;99.90;;;;;;4968696;28;20101;-35
2023/06/18 01:35:15;;;;;;;12.27;8.25;;;18.20;99.90;;;;;;4964714;28;20063;-36
2023/06/18 01:38:15;;;;;;;13.38;8.80;;;18.20;99.90;;;;;;4966682;28;20042;-35
2023/06/18 01:41:00;;;;;;;12.05;7.20;;;18.20;99.90;;;;;;4967539;28;20524;-35
2023/06/18 01:43:38;;;;;;;12.82;6.45;;;18.20;99.90;;;;;;4962880;28;20125;-36
2023/06/18 01:46:08;;;;;;;9.52;6.80;;;18.10;99.90;;;;;;4966143;28;20055;-35
2023/06/18 01:48:44;;;;;;;12.25;7.85;;;18.00;99.90;;;;;;4961545;28;20042;-35
2023/06/18 01:51:12;;;;;;;15.35;8.73;;;18.00;99.90;;;;;;4962577;28;20729;-35
2023/06/18 01:53:40;;;;;;;10.98;7.63;;;18.00;99.90;;;;;;4966138;28;20077;-35
2023/06/18 01:56:09;;;;;;;10.20;7.10;;;18.00;99.90;;;;;;4963177;28;20058;-36
2023/06/18 01:58:36;;;;;;;12.77;8.70;;;18.00;99.90;;;;;;4965247;28;20051;-36
2023/06/18 02:01:02;;;;;;;10.52;7.57;;;17.90;99.90;;;;;;4962177;28;20401;-36
2023/06/18 02:03:28;;;;;;;12.35;7.82;;;17.90;99.90;;;;;;4960357;28;20137;-36
2023/06/18 02:05:55;;;;;;;11.93;7.72;;;17.90;99.90;;;;;;4962706;28;20042;-36
2023/06/18 02:08:20;;;;;;;10.45;7.50;;;17.90;99.90;;;;;;4963122;28;20533;-36
2023/06/18 02:10:47;;;;;;;12.35;8.00;;;17.90;99.90;;;;;;4964625;28;20186;-36
2023/06/18 02:13:12;;;;;;;12.25;8.20;;;17.90;99.90;;;;;;4964715;28;20519;-36
2023/06/18 02:15:41;;;;;;;13.27;7.95;;;17.90;99.90;;;;;;4963090;28;20063;-36
2023/06/18 02:18:07;;;;;;;10.90;7.32;;;17.80;99.90;;;;;;4961812;28;20063;-36
2023/06/18 02:20:33;;;;;;;11.45;7.43;;;17.90;99.90;;;;;;4968003;28;20059;-36
2023/06/18 02:22:58;;;;;;;12.40;8.18;;;17.80;99.90;;;;;;4966680;28;20062;-36
2023/06/18 02:25:29;;;;;;;14.18;7.72;;;17.70;99.90;;;;;;4962764;28;20386;-36
2023/06/18 02:28:03;;;;;;;11.30;7.55;;;17.80;99.90;;;;;;4967956;28;20201;-36
2023/06/18 02:30:29;;;;;;;13.50;8.27;;;17.70;99.90;;;;;;4962897;28;20416;-36
2023/06/18 02:32:58;;;;;;;13.13;9.05;;;17.70;99.90;;;;;;4963432;28;20409;-36
2023/06/18 02:35:26;;;;;;;11.43;8.18;;;17.70;99.90;;;;;;4961486;28;20065;-36
2023/06/18 02:37:52;;;;;;;12.65;8.20;;;17.70;99.90;;;;;;4970775;28;20058;-36
2023/06/18 02:40:18;;;;;;;12.73;7.78;;;17.70;99.90;;;;;;4963168;28;20081;-36
2023/06/18 02:42:50;;;;;;;11.23;7.60;;;17.70;99.90;;;;;;4962948;28;20085;-36
2023/06/18 02:45:17;;;;;;;;;;;17.70;99.90;;;;;;4963884;28;20054;-36
2023/06/18 02:47:44;;;;;;;10.27;7.22;;;17.60;99.90;;;;;;4963419;28;19933;-36
2023/06/18 02:50:10;;;;;;;15.60;9.50;;;17.60;99.90;;;;;;4962964;28;20050;-36
2023/06/18 02:52:36;;;;;;;12.38;8.43;;;17.60;99.90;;;;;;4965360;28;20053;-36
2023/06/18 02:55:01;;;;;;;12.65;8.85;;;17.60;99.90;;;;;;4962905;28;20050;-36
2023/06/18 02:57:27;;;;;;;15.85;9.60;;;17.50;99.90;;;;;;4965483;28;20050;-36
2023/06/18 02:59:52;;;;;;;13.95;8.48;;;17.50;99.90;;;;;;4966505;28;20428;-36
2023/06/18 03:02:18;;;;;;;12.55;9.35;;;17.50;99.90;;;;;;4965383;28;20101;-36
2023/06/18 03:04:44;;;;;;;14.55;9.15;;;17.60;99.90;;;;;;4965002;28;20061;-36
2023/06/18 03:07:09;;;;;;;14.30;9.13;;;17.50;99.90;;;;;;4943671;28;20051;-36
2023/06/18 03:09:35;;;;;;;16.58;9.80;;;17.50;99.90;;;;;;4966360;28;20394;-36
2023/06/18 03:12:01;;;;;;;15.07;9.55;;;17.50;99.90;;;;;;4947420;28;20058;-36
2023/06/18 03:14:26;;;;;;;14.80;9.07;;;17.50;99.90;;;;;;4965505;28;20058;-36
2023/06/18 03:16:52;;;;;;;15.07;10.13;;;17.50;99.90;;;;;;4961737;28;20509;-36
2023/06/18 03:19:17;;;;;;;15.75;9.85;;;17.40;99.90;;;;;;4948402;28;20042;-36
2023/06/18 03:21:43;;;;;;;17.23;11.07;;;17.40;99.90;;;;;;4959611;28;20054;-36
2023/06/18 03:24:10;;;;;;;17.08;10.85;;;17.40;99.90;;;;;;4964651;28;20084;-36
2023/06/18 03:26:36;;;;;;;15.60;10.00;;;17.30;99.90;;;;;;4963170;28;20061;-36
2023/06/18 03:29:03;;;;;;;13.32;8.20;;;17.30;99.90;;;;;;4960731;28;20385;-37
2023/06/18 03:31:30;;;;;;;13.52;8.95;;;17.30;99.90;;;;;;4966196;28;20058;-36
2023/06/18 03:34:01;;;;;;;14.15;9.52;;;17.40;99.90;;;;;;4963624;28;20055;-36
2023/06/18 03:36:30;;;;;;;15.27;10.07;;;17.40;99.90;;;;;;4963005;28;20046;-36
2023/06/18 03:38:56;;;;;;;15.10;9.30;;;17.40;99.90;;;;;;4961594;28;20074;-36
2023/06/18 03:41:22;;;;;;;14.63;9.45;;;17.40;99.90;;;;;;4965154;28;20507;-36
2023/06/18 03:43:48;;;;;;;15.80;9.55;;;17.40;99.90;;;;;;4960971;28;20047;-36
2023/06/18 03:46:14;;;;;;;14.50;8.73;;;17.40;99.90;;;;;;4962309;28;20069;-36
2023/06/18 03:48:41;;;;;;;13.80;8.82;;;17.50;99.90;;;;;;4965248;28;20050;-36
2023/06/18 03:51:07;;;;;;;14.98;9.38;;;17.50;99.90;;;;;;4964553;28;20046;-36
2023/06/18 03:53:36;;;;;;;14.82;9.10;;;17.40;99.90;;;;;;4949046;28;20060;-36
2023/06/18 03:56:03;;;;;;;12.88;8.75;;;17.50;99.90;;;;;;4962058;28;21456;-36
2023/06/18 03:58:30;;;;;;;12.65;8.20;;;17.60;99.90;;;;;;4967000;28;20058;-36
2023/06/18 04:00:55;;;;;;;14.88;9.80;;;17.60;99.90;;;;;;4964091;28;20567;-36
2023/06/18 04:03:22;;;;;;;17.10;10.20;;;17.70;99.90;;;;;;4965256;28;20050;-36
2023/06/18 04:05:49;;;;;;;14.68;9.48;;;17.70;99.90;;;;;;4959912;28;20046;-36
2023/06/18 04:08:16;;;;;;;16.50;10.02;;;17.80;99.90;;;;;;4964377;28;20046;-36
2023/06/18 04:10:43;;;;;;;15.18;9.45;;;17.80;99.90;;;;;;4961850;28;20073;-37
2023/06/18 04:13:18;;;;;;;15.70;9.57;;;17.80;99.90;;;;;;4965815;28;20051;-36
2023/06/18 04:15:44;;;;;;;20.63;10.77;;;17.80;99.90;;;;;;4964588;28;20074;-37
2023/06/18 04:18:10;;;;;;;14.63;8.93;;;17.80;99.90;;;;;;4965332;28;20501;-36
2023/06/18 04:20:36;;;;;;;14.98;10.15;;;17.90;99.90;;;;;;4958703;28;20063;-36
2023/06/18 04:23:02;;;;;;;16.55;10.43;;;17.90;99.90;;;;;;4957725;28;20042;-36
2023/06/18 04:25:28;;;;;;;14.38;9.82;;;17.90;99.90;;;;;;4962650;28;20493;-36
2023/06/18 04:27:53;;;;;;;13.82;9.07;;;17.90;99.90;;;;;;4965932;28;20093;-36
2023/06/18 04:30:19;;;;;;;18.17;9.45;;;18.00;99.90;;;;;;4973694;28;20185;-36
2023/06/18 04:32:45;;;;;;;15.27;10.07;;;17.90;99.90;;;;;;4967888;28;20109;-36
2023/06/18 04:35:11;;;;;;;13.63;8.55;;;17.90;99.90;;;;;;4966544;28;20385;-36
2023/06/18 04:37:37;;;;;;;16.15;10.80;;;17.90;99.90;;;;;;4955431;28;20089;-36
2023/06/18 04:40:04;;;;;;;16.45;9.60;;;18.00;99.90;;;;;;4967245;28;20137;-36
2023/06/18 04:42:30;;;;;;;13.85;9.88;;;18.00;99.90;;;;;;4962593;28;20141;-36
2023/06/18 04:44:56;;;;;;;15.20;9.18;;;18.10;99.90;;;;;;4966122;28;20137;-36
2023/06/18 04:47:21;;;;;;;14.77;9.63;;;18.10;99.90;;;;;;4963565;28;20065;-36
2023/06/18 04:49:47;;;;;;;13.82;9.02;;;18.10;99.90;;;;;;4948586;28;20421;-35
2023/06/18 04:52:14;;;;;;;15.65;9.60;;;18.20;99.90;;;;;;4948178;28;20050;-35
2023/06/18 04:54:40;;;;;;;15.68;10.10;;;18.20;99.90;;;;;;4962057;28;20050;-34
2023/06/18 04:57:06;;;;;;;13.75;9.38;;;18.20;99.90;;;;;;4966300;28;20149;-35
2023/06/18 04:59:34;;;;;;;15.77;9.13;;;18.30;99.90;;;;;;4967030;28;21253;-34
2023/06/18 05:02:00;;;;;;;16.52;9.70;;;18.30;99.90;;;;;;4944982;28;20137;-35
2023/06/18 05:04:26;;;;;;;16.88;10.57;;;18.40;99.90;;;;;;4963839;28;20129;-35
2023/06/18 05:06:52;;;;;;;14.15;8.57;;;18.40;99.90;;;;;;4961552;28;20197;-35
2023/06/18 05:09:18;;;;;;;15.35;9.57;;;18.50;99.90;;;;;;4962555;28;20054;-36
2023/06/18 05:11:44;;;;;;;12.45;8.60;;;18.60;99.90;;;;;;4960021;28;23563;-35
2023/06/18 05:14:10;;;;;;;17.10;10.25;;;18.60;99.90;;;;;;4964436;28;20145;-35
2023/06/18 05:16:36;;;;;;;19.02;10.65;;;18.70;99.90;;;;;;4964377;28;20682;-35
2023/06/18 05:19:02;;;;;;;17.00;10.10;;;18.80;99.90;;;;;;4961543;28;20050;-34
2023/06/18 05:21:27;;;;;;;15.90;10.23;;;18.80;99.90;;;;;;4967458;28;20096;-35
2023/06/18 05:23:53;;;;;;;17.48;9.57;;;18.80;99.90;;;;;;4961225;28;20051;-35
2023/06/18 05:26:21;;;;;;;11.25;8.10;;;18.90;99.90;;;;;;4966779;28;20047;-36
2023/06/18 05:28:47;;;;;;;14.75;9.02;;;19.00;99.90;;;;;;4942965;28;20046;-35
2023/06/18 05:31:13;;;;;;;16.33;10.80;;;19.00;99.90;;;;;;4946617;28;20043;-35
2023/06/18 05:33:38;;;;;;;22.63;10.88;;;19.00;99.90;;;;;;4965639;28;20047;-35
2023/06/18 05:36:04;;;;;;;16.00;10.23;;;19.10;99.90;;;;;;4966092;28;20871;-35
2023/06/18 05:38:30;;;;;;;15.60;9.88;;;19.10;99.90;;;;;;4968264;28;20051;-36
2023/06/18 05:40:55;;;;;;;18.00;10.63;;;19.10;99.90;;;;;;4962405;28;20053;-34
2023/06/18 05:43:21;;;;;;;13.98;8.48;;;19.20;99.90;;;;;;4963426;28;20055;-35
2023/06/18 05:45:46;;;;;;;13.02;8.90;;;19.30;99.90;;;;;;4960055;28;20081;-35
2023/06/18 05:48:14;;;;;;;16.13;9.50;;;19.30;99.90;;;;;;4964700;28;20053;-35
2023/06/18 05:50:40;;;;;;;12.43;7.75;;;19.40;99.90;;;;;;4964978;28;20053;-35
2023/06/18 05:53:06;;;;;;;13.35;9.80;;;19.50;99.90;;;;;;4962984;28;20448;-35
2023/06/18 05:55:32;;;;;;;15.07;9.07;;;19.50;99.90;;;;;;4967727;28;20046;-35
2023/06/18 05:57:57;;;;;;;14.55;9.45;;;19.60;99.90;;;;;;4962563;28;20101;-36
2023/06/18 06:00:23;;;;;;;14.55;9.88;;;19.70;99.90;;;;;;4959559;28;20414;-35
2023/06/18 06:02:49;;;;;;;14.23;10.10;;;19.80;99.90;;;;;;4964986;28;20111;-35
2023/06/18 06:05:15;;;;;;;11.75;8.13;;;20.00;99.90;;;;;;4965581;28;20062;-35
2023/06/18 06:07:40;;;;;;;14.75;9.70;;;20.10;99.90;;;;;;4957254;28;20059;-35
2023/06/18 06:10:06;;;;;;;21.17;9.98;;;20.30;99.90;;;;;;4957281;28;20057;-36
2023/06/18 06:12:32;;;;;;;15.82;9.80;;;20.50;99.90;;;;;;4965780;28;21154;-36
2023/06/18 06:14:58;;;;;;;15.10;9.27;;;20.50;99.90;;;;;;4962703;28;20134;-35
2023/06/18 06:17:23;;;;;;;14.20;9.10;;;20.60;99.90;;;;;;4966032;28;20054;-36
2023/06/18 06:19:49;;;;;;;16.60;9.40;;;20.70;99.90;;;;;;4966097;28;20054;-36
2023/06/18 06:22:14;;;;;;;13.85;8.73;;;20.80;99.90;;;;;;4964963;28;20145;-35
2023/06/18 06:24:40;;;;;;;14.18;8.55;;;20.90;99.90;;;;;;4964726;28;20055;-35
2023/06/18 06:27:06;;;;;;;12.40;8.57;;;21.10;99.90;;;;;;4960981;28;20066;-35
2023/06/18 06:29:31;;;;;;;16.73;9.93;;;21.20;99.90;;;;;;4964105;28;20062;-36
2023/06/18 06:31:57;;;;;;;14.80;9.88;;;21.30;99.90;;;;;;4962271;28;20550;-35
2023/06/18 06:34:23;;;;;;;13.13;8.55;;;21.30;99.90;;;;;;4960572;28;20530;-35
2023/06/18 06:36:50;;;;;;;16.20;8.90;;;21.30;99.90;;;;;;4937504;28;20059;-35
2023/06/18 06:39:18;;;;;;;13.23;8.32;;;21.20;99.90;;;;;;4956119;28;20543;-35
2023/06/18 06:41:44;;;;;;;14.13;9.95;;;21.20;99.90;;;;;;4959396;28;20481;-36
2023/06/18 06:44:10;;;;;;;12.68;8.13;;;21.20;99.90;;;;;;4968200;28;20054;-36
2023/06/18 06:46:36;;;;;;;13.57;9.25;;;21.20;99.90;;;;;;4962277;28;20054;-36
2023/06/18 06:49:06;;;;;;;14.65;9.38;;;21.20;99.90;;;;;;4960228;28;23201;-36
2023/06/18 06:51:36;;;;;;;16.60;10.40;;;21.30;99.90;;;;;;4963562;28;20054;-35
2023/06/18 06:54:03;;;;;;;13.02;8.70;;;21.30;99.90;;;;;;4963662;28;20047;-36
2023/06/18 06:56:28;;;;;;;17.92;9.55;;;21.40;99.90;;;;;;4965716;28;20038;-36
2023/06/18 06:58:54;;;;;;;14.50;10.40;;;21.50;99.90;;;;;;4963920;28;20523;-36
2023/06/18 07:01:20;;;;;;;16.20;9.32;;;21.60;99.90;;;;;;4963698;28;20047;-35
2023/06/18 07:03:46;;;;;;;12.82;8.95;;;21.60;99.90;;;;;;4966075;28;20047;-35
2023/06/18 07:06:12;;;;;;;17.83;10.18;;;21.60;99.90;;;;;;4965425;28;20113;-36
2023/06/18 07:08:38;;;;;;;13.07;7.95;;;21.70;99.90;;;;;;4965270;28;20050;-36
2023/06/18 07:11:04;;;;;;;13.73;9.50;;;21.60;99.90;;;;;;4961203;28;20537;-36
2023/06/18 07:13:30;;;;;;;12.32;7.47;;;21.80;99.90;;;;;;4968307;28;20071;-36
2023/06/18 07:15:56;;;;;;;13.98;9.48;;;21.90;99.90;;;;;;4947874;28;20095;-35
2023/06/18 07:18:22;;;;;;;12.77;9.00;;;21.90;99.90;;;;;;4966126;28;20090;-36
2023/06/18 07:20:47;;;;;;;11.65;7.68;;;21.90;99.90;;;;;;4959482;28;20185;-36
2023/06/18 07:23:13;;;;;;;16.15;8.43;;;22.00;99.90;;;;;;4963309;28;20488;-36
2023/06/18 07:25:39;;;;;;;13.55;8.95;;;22.10;99.90;;;;;;4964640;28;20142;-35
2023/06/18 07:28:05;;;;;;;12.63;8.18;;;22.10;99.90;;;;;;4963702;28;20042;-36
2023/06/18 07:30:30;;;;;;;16.45;9.65;;;22.20;99.90;;;;;;4963739;28;20507;-35
2023/06/18 07:32:56;;;;;;;14.02;8.38;;;22.30;99.90;;;;;;4964808;28;20057;-35
2023/06/18 07:35:21;;;;;;;12.77;8.55;;;22.40;99.90;;;;;;4960642;28;20058;-34
2023/06/18 07:37:47;;;;;;;14.05;9.57;;;22.50;99.90;;;;;;4963261;28;20138;-35
2023/06/18 07:40:13;;;;;;;12.63;8.45;;;22.60;99.90;;;;;;4962214;28;20047;-35
2023/06/18 07:42:39;;;;;;;13.32;8.70;;;22.60;99.90;;;;;;4964843;28;20061;-35
2023/06/18 07:45:05;;;;;;;13.32;9.30;;;22.70;99.90;;;;;;4961142;28;20055;-35
2023/06/18 07:47:31;;;;;;;12.57;8.43;;;22.70;99.90;;;;;;4958757;28;20137;-35
2023/06/18 07:49:58;;;;;;;10.88;7.78;;;22.80;99.90;;;;;;4963277;28;20157;-35
2023/06/18 07:52:23;;;;;;;13.18;8.40;;;22.90;99.90;;;;;;4956240;28;20061;-35
2023/06/18 07:54:49;;;;;;;10.77;7.63;;;23.10;99.90;;;;;;4964251;28;20059;-35
2023/06/18 07:57:15;;;;;;;13.38;9.30;;;23.20;99.90;;;;;;4960652;28;20062;-35
2023/06/18 07:59:41;;;;;;;11.35;8.05;;;23.40;99.90;;;;;;4964568;28;20080;-35
2023/06/18 08:02:06;;;;;;;12.57;6.82;;;23.50;99.90;;;;;;4958709;28;20489;-34
2023/06/18 08:04:32;;;;;;;10.48;7.50;;;23.70;99.90;;;;;;4963813;28;20054;-35
2023/06/18 08:06:58;;;;;;;12.07;6.65;;;23.80;99.90;;;;;;4947654;28;20055;-35
2023/06/18 08:09:23;;;;;;;10.93;7.53;;;23.80;99.90;;;;;;4963704;28;20538;-35
2023/06/18 08:11:49;;;;;;;11.27;6.88;;;23.90;99.90;;;;;;4961150;28;20054;-36
2023/06/18 08:14:15;;;;;;;11.25;7.20;;;24.00;99.90;;;;;;4963572;28;21974;-35
2023/06/18 08:16:40;;;;;;;11.75;6.95;;;24.10;99.90;;;;;;4965880;28;20423;-35
2023/06/18 08:19:06;;;;;;;10.05;6.63;;;24.20;99.90;;;;;;4969146;28;20742;-35
2023/06/18 08:21:32;;;;;;;11.77;7.40;;;24.30;99.90;;;;;;4966606;28;20131;-35
2023/06/18 08:23:57;;;;;;;11.05;7.22;;;24.40;99.90;;;;;;4962613;28;20460;-36
2023/06/18 08:26:23;;;;;;;12.63;8.15;;;24.60;99.90;;;;;;4962446;28;20050;-35
2023/06/18 08:28:51;;;;;;;11.10;7.43;;;24.70;99.90;;;;;;4953771;28;20444;-36
2023/06/18 08:31:17;;;;;;;11.10;7.72;;;24.80;99.90;;;;;;4940684;28;20441;-35
2023/06/18 08:33:43;;;;;;;11.75;8.18;;;25.00;99.90;;;;;;4952323;28;20049;-35
2023/06/18 08:36:08;;;;;;;9.10;6.93;;;25.10;99.90;;;;;;4956905;28;20047;-35
2023/06/18 08:38:34;;;;;;;10.82;6.75;;;25.20;99.90;;;;;;4960416;28;20054;-35
2023/06/18 08:41:02;;;;;;;10.50;7.85;;;25.30;99.90;;;;;;4957542;28;20046;-35
2023/06/18 08:43:35;;;;;;;11.57;7.70;;;25.40;99.90;;;;;;4958679;28;20050;-35
2023/06/18 08:46:15;;;;;;;12.45;7.43;;;25.50;99.90;;;;;;4955407;28;20054;-35
2023/06/18 08:48:52;;;;;;;10.18;7.20;;;25.60;99.90;;;;;;4963911;28;20069;-35
2023/06/18 08:51:19;;;;;;;10.18;7.35;;;25.60;99.90;;;;;;4953484;28;20058;-34
2023/06/18 08:54:01;;;;;;;11.23;7.57;;;25.70;99.90;;;;;;4956487;28;20062;-35
2023/06/18 08:56:29;;;;;;;9.45;7.07;;;25.80;99.90;;;;;;4958299;28;20051;-36
2023/06/18 08:58:57;;;;;;;9.63;7.63;;;26.00;99.90;;;;;;4958797;28;20043;-36
2023/06/18 09:01:24;;;;;;;10.32;6.88;;;26.20;99.90;;;;;;4958255;28;20652;-36
2023/06/18 09:03:51;;;;;;;9.77;6.97;;;26.40;99.90;;;;;;4961245;28;20075;-38
2023/06/18 09:06:17;;;;;;;10.38;6.90;;;26.50;99.90;;;;;;4941772;28;20087;-37
2023/06/18 09:08:43;;;;;;;11.48;6.90;;;26.70;99.90;;;;;;4950348;28;20118;-36
2023/06/18 09:11:09;;;;;;;11.93;6.18;;;26.90;99.90;;;;;;4953454;28;20043;-35
2023/06/18 09:13:40;;;;;;;10.82;6.57;;;27.00;99.90;;;;;;4960971;28;20548;-35
2023/06/18 09:16:06;;;;;;;9.93;5.80;;;27.10;99.90;;;;;;4961500;28;20125;-35
2023/06/18 09:18:31;;;;;;;9.68;5.63;;;27.30;99.90;;;;;;4950799;28;20222;-36
2023/06/18 09:20:57;;;;;;;9.15;5.80;;;27.40;99.90;;;;;;4965219;28;20137;-35
2023/06/18 09:23:23;;;;;;;9.05;5.93;;;27.40;99.90;;;;;;4964116;28;20051;-35
2023/06/18 09:25:50;;;;;;;8.57;6.32;;;27.60;99.90;;;;;;4968387;28;20051;-35
2023/06/18 09:28:17;;;;;;;10.43;5.80;;;27.70;99.90;;;;;;4963151;28;20081;-35
2023/06/18 09:30:52;;;;;;;9.48;6.07;;;27.80;99.90;;;;;;4966377;28;20163;-34
2023/06/18 09:33:34;;;;;;;7.53;5.55;;;28.00;99.90;;;;;;4965021;28;20560;-34
2023/06/18 09:36:03;;;;;;;8.45;5.55;;;28.00;99.90;;;;;;4965265;28;20055;-34
2023/06/18 09:38:47;;;;;;;9.65;5.90;;;28.10;99.90;;;;;;4964242;28;20043;-33
2023/06/18 09:41:16;;;;;;;6.55;4.97;;;28.00;99.90;;;;;;4961433;28;20059;-35
2023/06/18 09:43:43;;;;;;;7.55;5.13;;;27.90;99.90;;;;;;4963667;28;20145;-36
2023/06/18 09:46:10;;;;;;;6.68;5.85;;;27.80;99.90;;;;;;4965294;28;20058;-36
2023/06/18 09:48:37;;;;;;;7.65;5.35;;;27.70;99.90;;;;;;4967279;28;20050;-36
2023/06/18 09:51:04;;;;;;;10.20;5.50;;;27.50;99.90;;;;;;4964417;28;20133;-34
2023/06/18 09:53:30;;;;;;;6.70;5.35;;;27.40;99.90;;;;;;4963906;28;20051;-35
2023/06/18 09:56:14;;;;;;;7.45;5.43;;;27.30;99.90;;;;;;4965044;28;20055;-36
2023/06/18 09:58:46;;;;;;;7.20;5.57;;;27.10;99.90;;;;;;4961011;28;20055;-36
2023/06/18 10:01:12;;;;;;;7.55;5.93;;;27.00;99.90;;;;;;4962622;28;20059;-36
2023/06/18 10:03:38;;;;;;;9.98;5.50;;;27.00;99.90;;;;;;4965233;28;20065;-35
2023/06/18 10:06:12;;;;;;;6.38;5.05;;;27.00;99.90;;;;;;4968502;28;20055;-36
2023/06/18 10:08:41;;;;;;;7.10;5.47;;;27.00;99.90;;;;;;4965241;28;20106;-36
2023/06/18 10:11:08;;;;;;;9.88;5.28;;;27.10;99.90;;;;;;4965549;28;20110;-35
2023/06/18 10:13:40;;;;;;;9.00;6.05;;;27.20;99.90;;;;;;4966704;28;20058;-35
2023/06/18 10:16:07;;;;;;;7.47;5.40;;;27.20;99.90;;;;;;4961209;28;20516;-36
2023/06/18 10:18:33;;;;;;;7.18;4.97;;;27.30;99.90;;;;;;4965628;28;20072;-37
2023/06/18 10:21:04;;;;;;;8.27;5.90;;;27.40;99.90;;;;;;4967847;28;20153;-34
2023/06/18 10:23:33;;;;;;;7.27;5.17;;;27.50;99.90;;;;;;4961429;28;20050;-35
2023/06/18 10:26:00;;;;;;;7.35;5.70;;;27.60;99.90;;;;;;4957771;28;20843;-35
2023/06/18 10:28:29;;;;;;;7.15;5.47;;;27.80;99.90;;;;;;4964878;28;20050;-35
2023/06/18 10:30:55;;;;;;;7.97;5.30;;;27.80;99.90;;;;;;4963531;28;20141;-35
2023/06/18 10:33:22;;;;;;;8.48;5.00;;;27.90;99.90;;;;;;4967356;28;20066;-36
2023/06/18 10:35:49;;;;;;;9.10;4.75;;;28.10;99.90;;;;;;4963321;28;20113;-35
2023/06/18 10:38:16;;;;;;;8.65;5.28;;;28.20;99.90;;;;;;4963639;28;20077;-36
2023/06/18 10:40:42;;;;;;;7.78;5.15;;;28.20;99.90;;;;;;4963306;28;20054;-36
2023/06/18 10:43:09;;;;;;;7.22;4.60;;;28.30;99.90;;;;;;4963713;28;20058;-35
2023/06/18 10:45:35;;;;;;;6.60;4.47;;;28.30;99.90;;;;;;4961329;28;20141;-35
2023/06/18 10:48:15;;;;;;;7.20;5.28;;;28.40;99.90;;;;;;4962453;28;20105;-35
2023/06/18 10:51:01;;;;;;;6.95;5.20;;;28.60;99.90;;;;;;4959658;28;20106;-35
2023/06/18 10:53:26;;;;;;;6.35;4.82;;;28.80;99.90;;;;;;4962217;28;20500;-36
2023/06/18 10:55:58;;;;;;;6.90;5.30;;;29.00;99.90;;;;;;4964534;28;20058;-35
2023/06/18 10:58:37;;;;;;;7.85;4.38;;;29.10;99.90;;;;;;4954736;28;20058;-35
2023/06/18 11:01:04;;;;;;;6.43;4.93;;;29.20;99.90;;;;;;4960587;28;20409;-35
2023/06/18 11:03:37;;;;;;;7.35;4.63;;;29.30;99.90;;;;;;4964564;28;20082;-34
2023/06/18 11:06:08;;;;;;;7.13;4.47;;;29.40;99.90;;;;;;4958754;28;21799;-35
2023/06/18 11:08:35;;;;;;;9.50;4.57;;;29.50;99.90;;;;;;4956676;28;20653;-35
2023/06/18 11:11:06;;;;;;;6.95;4.90;;;29.50;99.90;;;;;;4953090;28;20312;-34
2023/06/18 11:13:36;;;;;;;6.03;4.30;;;29.60;99.90;;;;;;4961725;28;20425;-35
2023/06/18 11:16:13;;;;;;;7.15;4.78;;;29.60;99.90;;;;;;4963999;28;20141;-35
2023/06/18 11:18:43;;;;;;;5.38;3.92;;;29.50;99.90;;;;;;4960119;28;20054;-35
2023/06/18 11:21:16;;;;;;;5.68;4.22;;;29.50;99.90;;;;;;4966885;28;20047;-35
2023/06/18 11:23:42;;;;;;;4.93;3.45;;;29.40;99.90;;;;;;4956511;28;20069;-36
2023/06/18 11:26:12;;;;;;;6.55;3.78;;;29.40;99.90;;;;;;4964225;28;20059;-36
2023/06/18 11:28:38;;;;;;;6.15;3.70;;;29.40;99.90;;;;;;4960808;28;20511;-36
2023/06/18 11:31:04;;;;;;;6.40;3.60;;;29.40;99.90;;;;;;4964153;28;20050;-36
2023/06/18 11:33:30;;;;;;;6.70;3.67;;;29.50;99.90;;;;;;4936899;28;20536;-35
2023/06/18 11:36:13;;;;;;;6.95;3.53;;;29.60;99.90;;;;;;4955930;28;20068;-35
2023/06/18 11:38:39;;;;;;;5.43;3.83;;;29.70;99.90;;;;;;4962245;28;20062;-34
2023/06/18 11:41:05;;;;;;;4.45;3.55;;;29.80;99.90;;;;;;4961164;28;20044;-35
2023/06/18 11:43:48;;;;;;;4.63;3.63;;;29.80;99.90;;;;;;4959978;28;20051;-35
2023/06/18 11:46:37;;;;;;;7.97;3.58;;;29.90;99.90;;;;;;4964648;28;20054;-35
2023/06/18 11:49:11;;;;;;;5.43;3.83;;;30.10;99.90;;;;;;4956883;28;20501;-34
2023/06/18 11:51:37;;;;;;;7.93;4.10;;;30.20;99.90;;;;;;4963170;28;20061;-35
2023/06/18 11:54:03;;;;;;;5.45;4.13;;;30.10;99.90;;;;;;4942814;28;20051;-36
2023/06/18 11:56:29;;;;;;;6.10;3.65;;;30.10;99.90;;;;;;4967253;28;20055;-36
2023/06/18 11:58:58;;;;;;;6.28;3.75;;;30.10;99.90;;;;;;4948669;28;20046;-36
2023/06/18 12:01:31;;;;;;;10.50;3.78;;;30.10;99.90;;;;;;4963573;28;20057;-35
2023/06/18 12:04:08;;;;;;;7.97;3.20;;;30.10;99.90;;;;;;4960236;28;20128;-36
2023/06/18 12:06:34;;;;;;;6.82;3.97;;;30.10;99.90;;;;;;4962296;28;20435;-36
2023/06/18 12:09:08;;;;;;;5.93;3.70;;;30.10;99.90;;;;;;4955813;28;20547;-36
2023/06/18 12:12:07;;;;;;;5.22;3.92;;;30.10;99.90;;;;;;4961005;28;20133;-36
2023/06/18 12:14:45;;;;;;;5.03;3.55;;;30.30;99.90;;;;;;4964651;28;20113;-36
2023/06/18 12:17:28;;;;;;;4.68;3.40;;;30.30;99.90;;;;;;4961958;28;20505;-35
2023/06/18 12:20:07;;;;;;;7.43;3.90;;;30.40;99.90;;;;;;4961205;28;20087;-36
2023/06/18 12:22:34;;;;;;;3.85;3.35;;;30.40;99.90;;;;;;4957097;28;20053;-36
2023/06/18 12:25:00;;;;;;;4.63;3.60;;;30.50;99.90;;;;;;4958882;28;20055;-35
2023/06/18 12:27:26;;;;;;;5.00;3.60;;;30.60;99.90;;;;;;4951907;28;20503;-35
2023/06/18 12:29:57;;;;;;;6.43;3.38;;;30.60;99.90;;;;;;4963340;28;20051;-36
2023/06/18 12:32:22;;;;;;;4.70;3.95;;;30.60;99.90;;;;;;4960588;28;21248;-35
2023/06/18 12:34:48;;;;;;;4.85;3.33;;;30.70;99.90;;;;;;4951604;28;20094;-35
2023/06/18 12:37:14;;;;;;;7.72;3.75;;;30.60;99.90;;;;;;4961426;28;20054;-35
2023/06/18 12:39:39;;;;;;;5.95;3.72;;;30.60;99.90;;;;;;4964014;28;20055;-36
2023/06/18 12:42:09;;;;;;;6.93;4.10;;;30.40;99.90;;;;;;4963175;28;20062;-36
2023/06/18 12:44:35;;;;;;;5.28;3.67;;;30.20;99.90;;;;;;4955108;28;20059;-42